createdAt,value
2023-03-17T00:01:28.863Z,749.78
2023-03-17T00:04:38.283Z,742.87
2023-03-17T00:07:44.374Z,739.71
2023-03-17T00:10:51.356Z,745.80
2023-03-17T00:13:58.952Z,799.87
2023-03-17T00:17:05.599Z,778.33
2023-03-17T00:20:27.894Z,750.67
2023-03-17T00:23:35.500Z,772.77
2023-03-17T00:26:42.750Z,813.60
2023-03-17T00:29:49.431Z,799.91
2023-03-17T00:33:01.497Z,855.96
2023-03-17T00:36:21.533Z,868.39
2023-03-17T00:39:28.103Z,863.05
2023-03-17T00:42:35.379Z,851.55
2023-03-17T00:45:43.039Z,875.00
2023-03-17T00:48:50.404Z,923.55
2023-03-17T00:51:59.986Z,922.28
2023-03-17T00:55:08.105Z,849.65
2023-03-17T00:58:20.708Z,852.70
2023-03-17T01:01:30.200Z,842.01
2023-03-17T01:04:36.784Z,812.84
2023-03-17T01:07:53.039Z,815.38
2023-03-17T01:10:59.707Z,832.49
2023-03-17T01:14:06.846Z,806.40
2023-03-17T01:17:20.869Z,762.87
2023-03-17T01:20:31.967Z,785.81
2023-03-17T01:23:41.260Z,790.79
2023-03-17T01:26:48.086Z,792.14
2023-03-17T01:29:59.003Z,790.99
2023-03-17T01:33:05.878Z,828.39
2023-03-17T01:36:14.261Z,810.39
2023-03-17T01:39:23.531Z,786.92
2023-03-17T01:42:32.776Z,743.53
2023-03-17T01:46:20.942Z,729.91
2023-03-17T01:49:36.890Z,710.21
2023-03-17T01:52:44.740Z,718.97
2023-03-17T01:55:56.937Z,713.70
2023-03-17T01:59:10.085Z,700.95
2023-03-17T02:02:23.271Z,703.82
2023-03-17T02:05:33.944Z,714.54
2023-03-17T02:08:39.685Z,703.39
2023-03-17T02:11:50.780Z,691.28
2023-03-17T02:14:56.873Z,689.02
2023-03-17T02:18:03.845Z,686.91
2023-03-17T02:21:51.564Z,690.91
2023-03-17T02:25:02.188Z,705.65
2023-03-17T02:28:16.332Z,683.53
2023-03-17T02:31:24.943Z,691.10
2023-03-17T02:34:31.657Z,692.91
2023-03-17T02:37:42.027Z,683.75
2023-03-17T02:40:47.756Z,681.98
2023-03-17T02:43:55.586Z,696.88
2023-03-17T02:47:01.498Z,725.44
2023-03-17T02:50:10.237Z,720.44
2023-03-17T02:53:19.525Z,716.26
2023-03-17T02:56:25.332Z,740.00
2023-03-17T02:59:32.232Z,736.38
2023-03-17T03:02:38.186Z,717.08
2023-03-17T03:05:44.960Z,742.89
2023-03-17T03:08:53.459Z,730.59
2023-03-17T03:12:00.182Z,726.18
2023-03-17T03:15:07.117Z,707.39
2023-03-17T03:18:13.752Z,706.57
2023-03-17T03:21:19.978Z,745.68
2023-03-17T03:24:29.252Z,735.26
2023-03-17T03:27:35.078Z,730.23
2023-03-17T03:30:44.770Z,756.83
2023-03-17T03:33:50.788Z,759.93
2023-03-17T03:36:57.819Z,758.24
2023-03-17T03:40:07.543Z,727.82
2023-03-17T03:43:23.079Z,755.83
2023-03-17T03:46:30.171Z,757.50
2023-03-17T03:49:36.775Z,780.33
2023-03-17T03:52:42.837Z,751.67
2023-03-17T03:55:52.020Z,773.31
2023-03-17T03:58:57.688Z,782.25
2023-03-17T04:02:04.252Z,768.15
2023-03-17T04:05:13.168Z,749.54
2023-03-17T04:08:19.766Z,756.39
2023-03-17T04:11:28.165Z,714.48
2023-03-17T04:14:34.896Z,691.25
2023-03-17T04:17:41.320Z,648.58
2023-03-17T04:20:47.895Z,618.71
2023-03-17T04:23:55.185Z,617.19
2023-03-17T04:27:06.085Z,629.64
2023-03-17T04:30:17.162Z,636.23
2023-03-17T04:33:23.813Z,615.09
2023-03-17T04:36:30.340Z,602.59
2023-03-17T04:39:37.111Z,604.88
2023-03-17T04:42:45.678Z,595.66
2023-03-17T04:45:52.415Z,598.53
2023-03-17T04:48:59.509Z,596.68
2023-03-17T04:52:06.865Z,596.75
2023-03-17T04:55:14.804Z,615.44
2023-03-17T04:58:30.792Z,642.94
2023-03-17T05:01:39.140Z,670.02
2023-03-17T05:04:48.991Z,689.97
2023-03-17T05:07:54.718Z,589.91
2023-03-17T05:11:02.181Z,568.29
2023-03-17T05:14:10.596Z,553.25
2023-03-17T05:17:17.440Z,563.78
2023-03-17T05:20:23.353Z,540.21
2023-03-17T05:23:30.359Z,516.92
2023-03-17T05:26:36.550Z,522.17
2023-03-17T05:29:47.832Z,522.91
2023-03-17T05:32:53.798Z,521.76
2023-03-17T05:36:00.593Z,514.43
2023-03-17T05:39:07.898Z,507.78
2023-03-17T05:42:15.773Z,513.92
2023-03-17T05:45:24.391Z,498.19
2023-03-17T05:48:31.048Z,487.59
2023-03-17T05:51:37.208Z,494.00
2023-03-17T05:54:44.884Z,482.91
2023-03-17T05:57:51.030Z,483.18
2023-03-17T06:01:00.365Z,487.63
2023-03-17T06:04:06.147Z,499.69
2023-03-17T06:07:13.925Z,475.11
2023-03-17T06:10:20.680Z,479.90
2023-03-17T06:13:28.873Z,510.31
2023-03-17T06:16:37.247Z,468.18
2023-03-17T06:19:44.053Z,455.65
2023-03-17T06:23:03.458Z,462.12
2023-03-17T06:26:12.658Z,445.99
2023-03-17T06:29:18.611Z,443.50
2023-03-17T06:32:28.413Z,443.59
2023-03-17T06:35:36.169Z,446.57
2023-03-17T06:38:43.854Z,454.12
2023-03-17T06:41:49.960Z,437.83
2023-03-17T06:44:56.940Z,438.89
2023-03-17T06:48:07.097Z,431.63
2023-03-17T06:51:13.997Z,438.89
2023-03-17T06:54:20.748Z,429.36
2023-03-17T06:57:27.312Z,437.39
2023-03-17T07:00:33.413Z,440.13
2023-03-17T07:03:42.608Z,406.34
2023-03-17T07:06:48.418Z,408.47
2023-03-17T07:09:55.075Z,409.18
2023-03-17T07:13:02.489Z,400.66
2023-03-17T07:16:10.130Z,392.37
2023-03-17T07:19:18.668Z,400.64
2023-03-17T07:22:25.814Z,356.34
2023-03-17T07:25:31.768Z,344.58
2023-03-17T07:28:40.451Z,343.50
2023-03-17T07:31:46.400Z,330.48
2023-03-17T07:34:55.549Z,335.77
2023-03-17T07:38:01.227Z,317.32
2023-03-17T07:41:10.018Z,310.17
2023-03-17T07:44:16.289Z,304.05
2023-03-17T07:47:23.092Z,294.56
2023-03-17T07:50:31.468Z,293.02
2023-03-17T07:53:38.034Z,279.57
2023-03-17T07:56:44.005Z,279.12
2023-03-17T07:59:50.761Z,265.99
2023-03-17T08:03:09.334Z,250.28
2023-03-17T08:06:19.468Z,242.79
2023-03-17T08:09:25.792Z,210.15
2023-03-17T08:12:32.536Z,193.72
2023-03-17T08:15:38.514Z,176.67
2023-03-17T08:18:45.312Z,169.95
2023-03-17T08:21:54.071Z,173.44
2023-03-17T08:25:00.719Z,182.31
2023-03-17T08:28:06.678Z,207.55
2023-03-17T08:31:17.428Z,210.61
2023-03-17T08:34:24.223Z,197.19
2023-03-17T08:37:35.466Z,158.16
2023-03-17T08:40:43.116Z,185.27
2023-03-17T08:43:51.894Z,147.06
2023-03-17T08:46:58.063Z,159.18
2023-03-17T08:50:08.684Z,166.06
2023-03-17T08:53:17.116Z,193.99
2023-03-17T08:56:24.503Z,158.05
2023-03-17T08:59:30.418Z,166.05
2023-03-17T09:02:37.202Z,180.49
2023-03-17T09:05:44.199Z,177.20
2023-03-17T09:08:55.745Z,175.40
2023-03-17T09:12:03.407Z,186.41
2023-03-17T09:15:13.022Z,182.37
2023-03-17T09:18:21.960Z,192.61
2023-03-17T09:21:29.432Z,185.69
2023-03-17T09:24:37.779Z,186.98
2023-03-17T09:27:44.807Z,182.26
2023-03-17T09:30:50.744Z,187.15
2023-03-17T09:33:57.350Z,177.27
2023-03-17T09:37:03.120Z,178.78
2023-03-17T09:40:22.327Z,171.04
2023-03-17T09:43:42.710Z,156.20
2023-03-17T09:47:05.554Z,152.78
2023-03-17T09:50:21.234Z,134.82
2023-03-17T09:53:36.082Z,132.43
2023-03-17T09:56:54.021Z,141.71
2023-03-17T10:00:08.039Z,137.81
2023-03-17T10:03:15.200Z,128.30
2023-03-17T10:06:39.383Z,137.69
2023-03-17T10:10:04.232Z,127.25
2023-03-17T10:13:35.193Z,175.32
2023-03-17T10:16:54.886Z,127.66
2023-03-17T10:20:11.624Z,154.85
2023-03-17T10:23:25.023Z,117.45
2023-03-17T10:26:40.767Z,130.10
2023-03-17T10:29:49.828Z,116.98
2023-03-17T10:33:03.392Z,103.23
2023-03-17T10:36:17.426Z,97.19
2023-03-17T10:39:28.292Z,96.55
2023-03-17T10:42:35.798Z,85.87
2023-03-17T10:46:01.246Z,76.85
2023-03-17T10:52:43.631Z,75.62
2023-03-17T10:55:55.654Z,73.46
2023-03-17T10:59:10.946Z,72.92
2023-03-17T11:02:30.665Z,72.98
2023-03-17T11:05:38.320Z,79.25
2023-03-17T11:08:53.868Z,68.73
2023-03-17T11:12:09.757Z,76.05
2023-03-17T11:15:21.682Z,74.56
2023-03-17T11:18:39.147Z,71.52
2023-03-17T11:22:05.088Z,69.79
2023-03-17T11:25:19.748Z,70.21
2023-03-17T11:28:36.435Z,67.26
2023-03-17T11:32:00.891Z,71.48
2023-03-17T11:35:37.089Z,75.75
2023-03-17T11:39:01.358Z,91.48
2023-03-17T11:42:24.357Z,96.33
2023-03-17T11:45:40.550Z,96.54
2023-03-17T11:49:01.653Z,89.58
2023-03-17T11:52:30.276Z,81.26
2023-03-17T11:55:50.360Z,102.52
2023-03-17T11:59:05.068Z,131.87
2023-03-17T12:02:30.826Z,117.46
2023-03-17T12:05:39.973Z,94.12
2023-03-17T12:09:05.611Z,89.45
2023-03-17T12:12:18.176Z,76.12
2023-03-17T12:15:37.290Z,74.85
2023-03-17T12:18:58.105Z,66.05
2023-03-17T12:22:19.560Z,83.37
2023-03-17T12:25:37.027Z,85.81
2023-03-17T12:28:55.643Z,69.58
2023-03-17T12:32:09.967Z,67.91
2023-03-17T12:35:32.330Z,83.64
2023-03-17T12:38:46.710Z,78.12
2023-03-17T12:42:19.572Z,78.81
2023-03-17T12:45:57.615Z,86.89
2023-03-17T12:49:58.141Z,81.70
2023-03-17T12:53:30.957Z,72.84
2023-03-17T12:56:46.797Z,79.60
2023-03-17T13:00:10.317Z,82.47
2023-03-17T13:03:29.066Z,72.44
2023-03-17T13:06:45.515Z,72.82
2023-03-17T13:10:13.412Z,76.28
2023-03-17T13:13:47.265Z,81.61
2023-03-17T13:17:28.941Z,83.05
2023-03-17T13:20:44.937Z,78.11
2023-03-17T13:24:21.825Z,77.60
2023-03-17T13:27:50.420Z,83.41
2023-03-17T13:31:13.378Z,82.30
2023-03-17T13:34:23.844Z,78.81
2023-03-17T13:37:43.923Z,78.83
2023-03-17T13:41:13.284Z,80.19
2023-03-17T13:44:49.605Z,81.63
2023-03-17T13:47:55.824Z,74.20
2023-03-17T13:51:23.515Z,76.87
2023-03-17T13:54:43.868Z,72.31
2023-03-17T13:58:18.590Z,70.84
2023-03-17T14:01:27.605Z,73.47
2023-03-17T14:04:53.639Z,76.11
2023-03-17T14:08:08.726Z,73.80
2023-03-17T14:11:29.796Z,75.90
2023-03-17T14:14:51.220Z,69.45
2023-03-17T14:18:08.368Z,66.05
2023-03-17T14:21:26.512Z,71.09
2023-03-17T14:24:37.279Z,67.14
2023-03-17T14:27:43.931Z,72.59
2023-03-17T14:30:57.597Z,68.52
2023-03-17T14:34:04.783Z,72.89
2023-03-17T14:37:16.007Z,68.98
2023-03-17T14:40:29.674Z,66.46
2023-03-17T14:43:39.655Z,69.74
2023-03-17T14:46:45.790Z,65.90
2023-03-17T14:49:59.748Z,68.46
2023-03-17T14:53:06.606Z,58.30
2023-03-17T14:56:16.964Z,63.40
2023-03-17T14:59:29.805Z,70.41
2023-03-17T15:02:42.515Z,76.57
2023-03-17T15:05:50.073Z,64.83
2023-03-17T15:08:57.511Z,68.57
2023-03-17T15:12:09.963Z,72.99
2023-03-17T15:15:28.053Z,68.63
2023-03-17T15:18:34.388Z,71.23
2023-03-17T15:21:45.658Z,69.91
2023-03-17T15:25:02.971Z,63.33
2023-03-17T15:28:20.099Z,62.81
2023-03-17T15:31:29.603Z,64.35
2023-03-17T15:34:36.632Z,66.38
2023-03-17T15:37:43.068Z,70.20
2023-03-17T15:40:50.165Z,68.69
2023-03-17T15:43:58.456Z,67.45
2023-03-17T15:47:05.839Z,69.82
2023-03-17T15:50:22.045Z,72.05
2023-03-17T15:53:29.152Z,198.97
2023-03-17T15:56:35.641Z,641.85
2023-03-17T15:59:44.925Z,252.32
2023-03-17T16:02:55.669Z,102.65
2023-03-17T16:06:02.694Z,96.36
2023-03-17T16:09:19.756Z,84.81
2023-03-17T16:12:27.822Z,76.17
2023-03-17T16:15:45.012Z,82.81
2023-03-17T16:18:55.317Z,79.60
2023-03-17T16:22:05.273Z,79.05
2023-03-17T16:25:25.586Z,75.76
2023-03-17T16:28:38.029Z,180.63
2023-03-17T16:31:51.983Z,151.25
2023-03-17T16:35:01.006Z,170.48
2023-03-17T16:38:13.743Z,132.61
2023-03-17T16:41:30.702Z,262.85
2023-03-17T16:44:40.875Z,199.42
2023-03-17T16:47:54.088Z,207.52
2023-03-17T16:51:02.150Z,163.25
2023-03-17T16:54:09.389Z,174.22
2023-03-17T16:57:17.077Z,207.67
2023-03-17T17:00:30.403Z,355.84
2023-03-17T17:03:40.960Z,186.65
2023-03-17T17:06:50.670Z,132.50
2023-03-17T17:09:59.586Z,166.50
2023-03-17T17:13:09.605Z,140.45
2023-03-17T17:16:30.389Z,144.93
2023-03-17T17:19:43.719Z,163.69
2023-03-17T17:22:51.047Z,186.25
2023-03-17T17:26:00.351Z,159.12
2023-03-17T17:29:16.121Z,217.70
2023-03-17T17:32:23.816Z,200.52
2023-03-17T17:35:36.188Z,232.56
2023-03-17T17:38:44.775Z,256.37
2023-03-17T17:41:54.373Z,315.11
2023-03-17T17:45:08.023Z,366.66
2023-03-17T17:48:18.311Z,349.08
2023-03-17T17:51:29.179Z,339.70
2023-03-17T17:54:36.694Z,445.85
2023-03-17T17:57:43.226Z,337.53
2023-03-17T18:00:52.742Z,287.31
2023-03-17T18:04:06.490Z,241.73
2023-03-17T18:07:15.837Z,221.26
2023-03-17T18:10:25.926Z,209.43
2023-03-17T18:13:32.648Z,202.38
2023-03-17T18:16:40.616Z,218.40
2023-03-17T18:19:47.763Z,217.67
2023-03-17T18:22:56.908Z,243.94
2023-03-17T18:26:06.119Z,298.97
2023-03-17T18:29:13.015Z,375.31
2023-03-17T18:32:19.812Z,267.47
2023-03-17T18:35:32.780Z,258.00
2023-03-17T18:38:43.875Z,220.08
2023-03-17T18:41:51.513Z,252.94
2023-03-17T18:55:39.638Z,253.26
2023-03-17T18:58:48.605Z,229.29
2023-03-17T19:01:54.701Z,221.10
2023-03-17T19:05:01.701Z,256.14
2023-03-17T19:08:08.363Z,230.94
2023-03-17T19:11:21.428Z,272.36
2023-03-17T19:14:27.713Z,263.12
2023-03-17T19:17:37.132Z,256.56
2023-03-17T19:20:42.983Z,282.76
2023-03-17T19:23:52.392Z,328.04
2023-03-17T19:27:00.796Z,477.69
2023-03-17T19:30:11.726Z,520.80
2023-03-17T19:33:18.993Z,426.44
2023-03-17T19:36:29.233Z,410.19
2023-03-17T19:39:39.296Z,444.12
2023-03-17T19:42:48.590Z,401.61
2023-03-17T19:45:54.739Z,302.83
2023-03-17T19:49:01.856Z,263.85
2023-03-17T19:52:08.044Z,281.42
2023-03-17T19:55:14.739Z,241.86
2023-03-17T19:58:23.308Z,320.18
2023-03-17T20:01:32.154Z,413.41
2023-03-17T20:04:38.097Z,301.72
2023-03-17T20:07:46.548Z,254.82
2023-03-17T20:10:58.822Z,280.93
2023-03-17T20:14:09.215Z,280.09
2023-03-17T20:17:15.599Z,470.29
2023-03-17T20:20:22.407Z,362.07
2023-03-17T20:23:28.862Z,489.02
2023-03-17T20:26:35.553Z,330.64
2023-03-17T20:29:46.748Z,285.75
2023-03-17T20:32:53.390Z,253.24
2023-03-17T20:35:59.683Z,282.01
2023-03-17T20:39:09.443Z,283.13
2023-03-17T20:42:20.443Z,279.51
2023-03-17T20:45:33.505Z,285.26
2023-03-17T20:48:48.791Z,397.93
2023-03-17T20:51:56.236Z,495.15
2023-03-17T20:55:02.942Z,380.33
2023-03-17T20:58:10.293Z,296.63
2023-03-17T21:01:21.524Z,288.37
2023-03-17T21:04:29.470Z,288.43
2023-03-17T21:07:35.374Z,260.78
2023-03-17T21:10:42.180Z,257.65
2023-03-17T21:13:48.703Z,266.12
2023-03-17T21:16:57.966Z,355.42
2023-03-17T21:20:05.157Z,370.83
2023-03-17T21:23:13.579Z,347.14
2023-03-17T21:26:20.219Z,291.09
2023-03-17T21:29:31.044Z,274.02
2023-03-17T21:32:39.957Z,266.44
2023-03-17T21:35:47.379Z,273.82
2023-03-17T21:38:53.905Z,265.70
2023-03-17T21:42:02.199Z,266.19
2023-03-17T21:45:12.264Z,270.41
2023-03-17T21:48:22.038Z,270.55
2023-03-17T21:51:30.375Z,290.45
2023-03-17T21:54:38.285Z,311.88
2023-03-17T21:57:45.287Z,282.82
2023-03-17T22:00:52.396Z,283.10
2023-03-17T22:04:02.618Z,292.23
2023-03-17T22:07:12.204Z,272.73
2023-03-17T22:10:18.846Z,246.53
2023-03-17T22:13:26.344Z,248.75
2023-03-17T22:16:33.160Z,269.36
2023-03-17T22:19:49.121Z,262.98
2023-03-17T22:23:02.014Z,262.21
2023-03-17T22:26:15.882Z,267.01
2023-03-17T22:29:23.887Z,249.34
2023-03-17T22:32:33.649Z,266.88
2023-03-17T22:35:42.899Z,270.33
2023-03-17T22:38:49.883Z,289.15
2023-03-17T22:41:55.799Z,298.67
2023-03-17T22:45:03.039Z,310.37
2023-03-17T22:48:11.029Z,277.82
2023-03-17T22:51:24.625Z,270.99
2023-03-17T22:54:30.453Z,261.39
2023-03-17T22:57:37.207Z,260.28
2023-03-17T23:00:43.188Z,256.47
2023-03-17T23:03:50.359Z,257.01
2023-03-17T23:06:59.218Z,263.88
2023-03-17T23:10:08.155Z,270.75
2023-03-17T23:13:14.296Z,266.78
2023-03-17T23:16:22.243Z,274.21
2023-03-17T23:19:28.032Z,268.30
2023-03-17T23:22:37.387Z,267.79
2023-03-17T23:25:43.786Z,269.20
2023-03-17T23:28:50.478Z,261.28
2023-03-17T23:31:56.324Z,264.25
2023-03-17T23:35:03.029Z,253.63
2023-03-17T23:38:11.513Z,260.06
2023-03-17T23:41:18.636Z,256.70
2023-03-17T23:44:24.619Z,248.82
2023-03-17T23:47:32.188Z,248.08
2023-03-17T23:50:38.342Z,242.18
2023-03-17T23:53:48.224Z,244.49
2023-03-17T23:56:54.424Z,243.54
